sensor_id;sensor_type;location;lat;lon;timestamp;P1;durP1;ratioP1;P2;durP2;ratioP2
5805;SDS011;2929;50.810;8.342;2024-02-04T00:00:45;7.67;;;5.90;;
5805;SDS011;2929;50.810;8.342;2024-02-04T00:03:12;9.17;;;5.60;;
5805;SDS011;2929;50.810;8.342;2024-02-04T00:05:40;6.87;;;5.13;;
5805;SDS011;2929;50.810;8.342;2024-02-04T00:08:07;5.90;;;4.53;;
5805;SDS011;2929;50.810;8.342;2024-02-04T00:10:34;5.63;;;4.70;;
5805;SDS011;2929;50.810;8.342;2024-02-04T00:13:02;6.23;;;4.80;;
5805;SDS011;2929;50.810;8.342;2024-02-04T00:15:29;8.17;;;4.90;;
5805;SDS011;2929;50.810;8.342;2024-02-04T00:17:56;6.90;;;4.43;;
5805;SDS011;2929;50.810;8.342;2024-02-04T00:20:23;8.20;;;4.53;;
5805;SDS011;2929;50.810;8.342;2024-02-04T00:22:55;4.83;;;3.73;;
5805;SDS011;2929;50.810;8.342;2024-02-04T00:25:22;5.93;;;4.50;;
5805;SDS011;2929;50.810;8.342;2024-02-04T00:27:48;6.80;;;3.00;;
5805;SDS011;2929;50.810;8.342;2024-02-04T00:30:16;5.20;;;2.60;;
5805;SDS011;2929;50.810;8.342;2024-02-04T00:32:43;3.40;;;2.73;;
5805;SDS011;2929;50.810;8.342;2024-02-04T00:35:10;3.70;;;3.03;;
5805;SDS011;2929;50.810;8.342;2024-02-04T00:37:37;3.27;;;2.73;;
5805;SDS011;2929;50.810;8.342;2024-02-04T00:40:08;5.70;;;2.63;;
5805;SDS011;2929;50.810;8.342;2024-02-04T00:42:36;2.50;;;2.30;;
5805;SDS011;2929;50.810;8.342;2024-02-04T00:45:03;2.60;;;2.33;;
5805;SDS011;2929;50.810;8.342;2024-02-04T00:47:30;4.73;;;2.10;;
5805;SDS011;2929;50.810;8.342;2024-02-04T00:49:57;2.00;;;1.80;;
5805;SDS011;2929;50.810;8.342;2024-02-04T00:52:24;2.07;;;1.87;;
5805;SDS011;2929;50.810;8.342;2024-02-04T00:54:51;1.83;;;1.73;;
5805;SDS011;2929;50.810;8.342;2024-02-04T00:57:19;1.60;;;1.50;;
5805;SDS011;2929;50.810;8.342;2024-02-04T00:59:46;1.87;;;1.63;;
5805;SDS011;2929;50.810;8.342;2024-02-04T01:02:15;3.33;;;1.77;;
5805;SDS011;2929;50.810;8.342;2024-02-04T01:04:42;2.50;;;1.87;;
5805;SDS011;2929;50.810;8.342;2024-02-04T01:07:09;1.40;;;1.33;;
5805;SDS011;2929;50.810;8.342;2024-02-04T01:09:36;1.63;;;1.53;;
5805;SDS011;2929;50.810;8.342;2024-02-04T01:12:03;1.17;;;1.10;;
5805;SDS011;2929;50.810;8.342;2024-02-04T01:14:31;2.00;;;1.20;;
5805;SDS011;2929;50.810;8.342;2024-02-04T01:16:58;1.20;;;1.10;;
5805;SDS011;2929;50.810;8.342;2024-02-04T01:19:25;1.43;;;1.33;;
5805;SDS011;2929;50.810;8.342;2024-02-04T01:21:52;0.90;;;0.90;;
5805;SDS011;2929;50.810;8.342;2024-02-04T01:24:19;0.90;;;0.90;;
5805;SDS011;2929;50.810;8.342;2024-02-04T01:26:46;1.10;;;1.10;;
5805;SDS011;2929;50.810;8.342;2024-02-04T01:29:13;1.70;;;0.90;;
5805;SDS011;2929;50.810;8.342;2024-02-04T01:31:41;0.80;;;0.80;;
5805;SDS011;2929;50.810;8.342;2024-02-04T01:34:09;0.83;;;0.83;;
5805;SDS011;2929;50.810;8.342;2024-02-04T01:36:37;1.50;;;1.10;;
5805;SDS011;2929;50.810;8.342;2024-02-04T01:39:04;1.57;;;1.10;;
5805;SDS011;2929;50.810;8.342;2024-02-04T01:41:32;1.00;;;1.00;;
5805;SDS011;2929;50.810;8.342;2024-02-04T01:44:01;1.13;;;0.90;;
5805;SDS011;2929;50.810;8.342;2024-02-04T01:46:28;0.70;;;0.70;;
5805;SDS011;2929;50.810;8.342;2024-02-04T01:48:56;2.40;;;1.10;;
5805;SDS011;2929;50.810;8.342;2024-02-04T01:51:23;0.87;;;0.87;;
5805;SDS011;2929;50.810;8.342;2024-02-04T01:53:51;0.70;;;0.70;;
5805;SDS011;2929;50.810;8.342;2024-02-04T01:56:18;0.80;;;0.80;;
5805;SDS011;2929;50.810;8.342;2024-02-04T01:58:46;0.70;;;0.70;;
5805;SDS011;2929;50.810;8.342;2024-02-04T02:01:14;0.80;;;0.80;;
5805;SDS011;2929;50.810;8.342;2024-02-04T02:03:41;0.90;;;0.90;;
5805;SDS011;2929;50.810;8.342;2024-02-04T02:06:10;0.60;;;0.60;;
5805;SDS011;2929;50.810;8.342;2024-02-04T02:08:39;0.73;;;0.70;;
5805;SDS011;2929;50.810;8.342;2024-02-04T02:11:08;0.70;;;0.70;;
5805;SDS011;2929;50.810;8.342;2024-02-04T02:13:39;0.73;;;0.73;;
5805;SDS011;2929;50.810;8.342;2024-02-04T02:16:11;1.33;;;0.77;;
5805;SDS011;2929;50.810;8.342;2024-02-04T02:18:44;0.73;;;0.73;;
5805;SDS011;2929;50.810;8.342;2024-02-04T02:21:30;0.50;;;0.50;;
5805;SDS011;2929;50.810;8.342;2024-02-04T02:24:10;0.87;;;0.60;;
5805;SDS011;2929;50.810;8.342;2024-02-04T02:26:42;0.60;;;0.60;;
5805;SDS011;2929;50.810;8.342;2024-02-04T02:29:09;0.67;;;0.67;;
5805;SDS011;2929;50.810;8.342;2024-02-04T02:31:36;0.50;;;0.50;;
5805;SDS011;2929;50.810;8.342;2024-02-04T02:34:04;0.50;;;0.50;;
5805;SDS011;2929;50.810;8.342;2024-02-04T02:36:33;0.80;;;0.57;;
5805;SDS011;2929;50.810;8.342;2024-02-04T02:39:05;2.00;;;0.60;;
5805;SDS011;2929;50.810;8.342;2024-02-04T02:41:36;1.90;;;0.60;;
5805;SDS011;2929;50.810;8.342;2024-02-04T02:44:07;0.73;;;0.60;;
5805;SDS011;2929;50.810;8.342;2024-02-04T02:46:35;1.00;;;0.67;;
5805;SDS011;2929;50.810;8.342;2024-02-04T02:49:02;0.50;;;0.50;;
5805;SDS011;2929;50.810;8.342;2024-02-04T02:51:30;1.23;;;0.50;;
5805;SDS011;2929;50.810;8.342;2024-02-04T02:53:57;0.70;;;0.70;;
5805;SDS011;2929;50.810;8.342;2024-02-04T02:56:24;0.50;;;0.50;;
5805;SDS011;2929;50.810;8.342;2024-02-04T02:58:54;1.60;;;0.60;;
5805;SDS011;2929;50.810;8.342;2024-02-04T03:01:22;0.90;;;0.60;;
5805;SDS011;2929;50.810;8.342;2024-02-04T03:03:49;0.70;;;0.40;;
5805;SDS011;2929;50.810;8.342;2024-02-04T03:06:16;0.50;;;0.50;;
5805;SDS011;2929;50.810;8.342;2024-02-04T03:08:43;0.40;;;0.40;;
5805;SDS011;2929;50.810;8.342;2024-02-04T03:11:10;0.57;;;0.50;;
5805;SDS011;2929;50.810;8.342;2024-02-04T03:13:37;1.13;;;1.13;;
5805;SDS011;2929;50.810;8.342;2024-02-04T03:16:05;0.40;;;0.40;;
5805;SDS011;2929;50.810;8.342;2024-02-04T03:18:38;0.40;;;0.40;;
5805;SDS011;2929;50.810;8.342;2024-02-04T03:21:11;0.40;;;0.40;;
5805;SDS011;2929;50.810;8.342;2024-02-04T03:23:38;0.40;;;0.40;;
5805;SDS011;2929;50.810;8.342;2024-02-04T03:26:07;0.40;;;0.40;;
5805;SDS011;2929;50.810;8.342;2024-02-04T03:28:34;0.50;;;0.50;;
5805;SDS011;2929;50.810;8.342;2024-02-04T03:31:01;0.80;;;0.50;;
5805;SDS011;2929;50.810;8.342;2024-02-04T03:33:28;0.50;;;0.50;;
5805;SDS011;2929;50.810;8.342;2024-02-04T03:35:56;0.40;;;0.40;;
5805;SDS011;2929;50.810;8.342;2024-02-04T03:38:23;0.40;;;0.40;;
5805;SDS011;2929;50.810;8.342;2024-02-04T03:40:52;0.40;;;0.40;;
5805;SDS011;2929;50.810;8.342;2024-02-04T03:43:19;0.60;;;0.40;;
5805;SDS011;2929;50.810;8.342;2024-02-04T03:45:46;0.40;;;0.40;;
5805;SDS011;2929;50.810;8.342;2024-02-04T03:48:13;2.33;;;0.60;;
5805;SDS011;2929;50.810;8.342;2024-02-04T03:50:40;0.40;;;0.40;;
5805;SDS011;2929;50.810;8.342;2024-02-04T03:53:08;0.40;;;0.40;;
5805;SDS011;2929;50.810;8.342;2024-02-04T03:55:35;0.50;;;0.40;;
5805;SDS011;2929;50.810;8.342;2024-02-04T03:58:02;0.40;;;0.40;;
5805;SDS011;2929;50.810;8.342;2024-02-04T04:00:29;0.40;;;0.40;;
5805;SDS011;2929;50.810;8.342;2024-02-04T04:02:56;0.40;;;0.40;;
5805;SDS011;2929;50.810;8.342;2024-02-04T04:05:23;0.40;;;0.40;;
5805;SDS011;2929;50.810;8.342;2024-02-04T04:07:51;0.40;;;0.40;;
5805;SDS011;2929;50.810;8.342;2024-02-04T04:10:19;0.63;;;0.40;;
5805;SDS011;2929;50.810;8.342;2024-02-04T04:12:46;0.50;;;0.50;;
5805;SDS011;2929;50.810;8.342;2024-02-04T04:15:13;0.40;;;0.40;;
5805;SDS011;2929;50.810;8.342;2024-02-04T04:17:40;1.07;;;0.50;;
5805;SDS011;2929;50.810;8.342;2024-02-04T04:20:07;0.83;;;0.40;;
5805;SDS011;2929;50.810;8.342;2024-02-04T04:22:34;0.40;;;0.40;;
5805;SDS011;2929;50.810;8.342;2024-02-04T04:25:01;0.40;;;0.40;;
5805;SDS011;2929;50.810;8.342;2024-02-04T04:27:30;0.40;;;0.40;;
5805;SDS011;2929;50.810;8.342;2024-02-04T04:29:56;0.50;;;0.50;;
5805;SDS011;2929;50.810;8.342;2024-02-04T04:32:23;0.40;;;0.40;;
5805;SDS011;2929;50.810;8.342;2024-02-04T04:34:50;0.40;;;0.40;;
5805;SDS011;2929;50.810;8.342;2024-02-04T04:37:17;0.40;;;0.40;;
5805;SDS011;2929;50.810;8.342;2024-02-04T04:39:44;0.40;;;0.40;;
5805;SDS011;2929;50.810;8.342;2024-02-04T04:42:11;0.40;;;0.40;;
5805;SDS011;2929;50.810;8.342;2024-02-04T04:44:40;0.50;;;0.50;;
5805;SDS011;2929;50.810;8.342;2024-02-04T04:47:07;0.50;;;0.50;;
5805;SDS011;2929;50.810;8.342;2024-02-04T04:49:34;0.43;;;0.43;;
5805;SDS011;2929;50.810;8.342;2024-02-04T04:52:01;0.50;;;0.50;;
5805;SDS011;2929;50.810;8.342;2024-02-04T04:54:29;0.50;;;0.50;;
5805;SDS011;2929;50.810;8.342;2024-02-04T04:56:56;0.40;;;0.40;;
5805;SDS011;2929;50.810;8.342;2024-02-04T04:59:23;0.60;;;0.50;;
5805;SDS011;2929;50.810;8.342;2024-02-04T05:01:51;0.50;;;0.50;;
5805;SDS011;2929;50.810;8.342;2024-02-04T05:04:18;0.50;;;0.50;;
5805;SDS011;2929;50.810;8.342;2024-02-04T05:06:46;0.50;;;0.50;;
5805;SDS011;2929;50.810;8.342;2024-02-04T05:09:13;0.53;;;0.53;;
5805;SDS011;2929;50.810;8.342;2024-02-04T05:11:40;0.50;;;0.50;;
5805;SDS011;2929;50.810;8.342;2024-02-04T05:14:07;0.50;;;0.50;;
5805;SDS011;2929;50.810;8.342;2024-02-04T05:16:34;0.60;;;0.60;;
5805;SDS011;2929;50.810;8.342;2024-02-04T05:19:03;0.60;;;0.60;;
5805;SDS011;2929;50.810;8.342;2024-02-04T05:21:30;0.60;;;0.60;;
5805;SDS011;2929;50.810;8.342;2024-02-04T05:23:57;0.90;;;0.90;;
5805;SDS011;2929;50.810;8.342;2024-02-04T05:26:25;0.90;;;0.90;;
5805;SDS011;2929;50.810;8.342;2024-02-04T05:28:51;1.03;;;0.93;;
5805;SDS011;2929;50.810;8.342;2024-02-04T05:31:19;0.97;;;0.97;;
5805;SDS011;2929;50.810;8.342;2024-02-04T05:33:46;1.20;;;1.20;;
5805;SDS011;2929;50.810;8.342;2024-02-04T05:36:14;2.37;;;2.17;;
5805;SDS011;2929;50.810;8.342;2024-02-04T05:38:42;2.30;;;2.10;;
5805;SDS011;2929;50.810;8.342;2024-02-04T05:41:11;1.73;;;1.60;;
5805;SDS011;2929;50.810;8.342;2024-02-04T05:43:38;2.23;;;2.10;;
5805;SDS011;2929;50.810;8.342;2024-02-04T05:46:05;3.03;;;2.77;;
5805;SDS011;2929;50.810;8.342;2024-02-04T05:48:32;3.23;;;2.93;;
5805;SDS011;2929;50.810;8.342;2024-02-04T05:50:59;3.50;;;3.20;;
5805;SDS011;2929;50.810;8.342;2024-02-04T05:53:27;3.47;;;3.17;;
5805;SDS011;2929;50.810;8.342;2024-02-04T05:55:54;4.90;;;4.00;;
5805;SDS011;2929;50.810;8.342;2024-02-04T05:58:21;4.53;;;3.70;;
5805;SDS011;2929;50.810;8.342;2024-02-04T06:00:48;5.70;;;4.27;;
5805;SDS011;2929;50.810;8.342;2024-02-04T06:03:16;4.50;;;4.10;;
5805;SDS011;2929;50.810;8.342;2024-02-04T06:05:43;8.30;;;4.70;;
5805;SDS011;2929;50.810;8.342;2024-02-04T06:08:10;5.00;;;4.37;;
5805;SDS011;2929;50.810;8.342;2024-02-04T06:10:39;8.10;;;4.20;;
5805;SDS011;2929;50.810;8.342;2024-02-04T06:13:06;4.03;;;3.37;;
5805;SDS011;2929;50.810;8.342;2024-02-04T06:15:33;3.60;;;2.93;;
5805;SDS011;2929;50.810;8.342;2024-02-04T06:18:01;3.10;;;2.83;;
5805;SDS011;2929;50.810;8.342;2024-02-04T06:20:30;3.43;;;2.77;;
5805;SDS011;2929;50.810;8.342;2024-02-04T06:22:57;5.77;;;3.20;;
5805;SDS011;2929;50.810;8.342;2024-02-04T06:25:24;4.20;;;3.03;;
5805;SDS011;2929;50.810;8.342;2024-02-04T06:27:52;4.50;;;3.10;;
5805;SDS011;2929;50.810;8.342;2024-02-04T06:30:19;5.30;;;3.93;;
5805;SDS011;2929;50.810;8.342;2024-02-04T06:32:47;4.97;;;3.93;;
5805;SDS011;2929;50.810;8.342;2024-02-04T06:35:14;3.57;;;3.23;;
5805;SDS011;2929;50.810;8.342;2024-02-04T06:37:41;4.00;;;3.60;;
5805;SDS011;2929;50.810;8.342;2024-02-04T06:40:09;6.50;;;4.00;;
5805;SDS011;2929;50.810;8.342;2024-02-04T06:42:39;4.80;;;3.77;;
5805;SDS011;2929;50.810;8.342;2024-02-04T06:45:08;5.23;;;3.67;;
5805;SDS011;2929;50.810;8.342;2024-02-04T06:47:35;3.90;;;3.33;;
5805;SDS011;2929;50.810;8.342;2024-02-04T06:50:03;6.17;;;3.53;;
5805;SDS011;2929;50.810;8.342;2024-02-04T06:52:30;6.27;;;3.50;;
5805;SDS011;2929;50.810;8.342;2024-02-04T06:54:57;5.83;;;3.97;;
5805;SDS011;2929;50.810;8.342;2024-02-04T06:57:24;4.00;;;3.47;;
5805;SDS011;2929;50.810;8.342;2024-02-04T06:59:51;4.40;;;3.70;;
5805;SDS011;2929;50.810;8.342;2024-02-04T07:02:20;4.73;;;3.60;;
5805;SDS011;2929;50.810;8.342;2024-02-04T07:04:47;5.80;;;3.87;;
5805;SDS011;2929;50.810;8.342;2024-02-04T07:07:14;4.70;;;4.07;;
5805;SDS011;2929;50.810;8.342;2024-02-04T07:09:41;6.93;;;4.47;;
5805;SDS011;2929;50.810;8.342;2024-02-04T07:12:08;6.20;;;4.63;;
5805;SDS011;2929;50.810;8.342;2024-02-04T07:14:35;7.20;;;4.30;;
5805;SDS011;2929;50.810;8.342;2024-02-04T07:17:02;8.60;;;4.37;;
5805;SDS011;2929;50.810;8.342;2024-02-04T07:19:30;4.93;;;4.27;;
5805;SDS011;2929;50.810;8.342;2024-02-04T07:21:57;4.77;;;3.80;;
5805;SDS011;2929;50.810;8.342;2024-02-04T07:24:24;3.20;;;2.90;;
5805;SDS011;2929;50.810;8.342;2024-02-04T07:26:51;3.63;;;3.20;;
5805;SDS011;2929;50.810;8.342;2024-02-04T07:29:18;3.37;;;2.97;;
5805;SDS011;2929;50.810;8.342;2024-02-04T07:31:45;4.93;;;3.23;;
5805;SDS011;2929;50.810;8.342;2024-02-04T07:34:12;2.90;;;2.70;;
5805;SDS011;2929;50.810;8.342;2024-02-04T07:36:40;3.10;;;2.80;;
5805;SDS011;2929;50.810;8.342;2024-02-04T07:39:08;3.37;;;3.07;;
5805;SDS011;2929;50.810;8.342;2024-02-04T07:41:35;4.40;;;3.07;;
5805;SDS011;2929;50.810;8.342;2024-02-04T07:44:02;5.10;;;3.30;;
5805;SDS011;2929;50.810;8.342;2024-02-04T07:46:29;4.60;;;3.50;;
5805;SDS011;2929;50.810;8.342;2024-02-04T07:48:56;8.17;;;3.70;;
5805;SDS011;2929;50.810;8.342;2024-02-04T07:51:23;4.20;;;3.40;;
5805;SDS011;2929;50.810;8.342;2024-02-04T07:53:51;4.03;;;3.63;;
5805;SDS011;2929;50.810;8.342;2024-02-04T07:56:18;4.80;;;3.63;;
5805;SDS011;2929;50.810;8.342;2024-02-04T07:58:45;5.30;;;3.57;;
5805;SDS011;2929;50.810;8.342;2024-02-04T08:01:12;4.60;;;3.57;;
5805;SDS011;2929;50.810;8.342;2024-02-04T08:03:39;4.47;;;3.30;;
5805;SDS011;2929;50.810;8.342;2024-02-04T08:06:08;3.83;;;3.30;;
5805;SDS011;2929;50.810;8.342;2024-02-04T08:08:35;4.73;;;3.00;;
5805;SDS011;2929;50.810;8.342;2024-02-04T08:11:03;3.60;;;3.30;;
5805;SDS011;2929;50.810;8.342;2024-02-04T08:13:30;3.00;;;2.80;;
5805;SDS011;2929;50.810;8.342;2024-02-04T08:15:57;4.00;;;2.57;;
5805;SDS011;2929;50.810;8.342;2024-02-04T08:18:26;1.87;;;1.77;;
5805;SDS011;2929;50.810;8.342;2024-02-04T08:20:54;2.20;;;1.83;;
5805;SDS011;2929;50.810;8.342;2024-02-04T08:23:21;1.50;;;1.40;;
5805;SDS011;2929;50.810;8.342;2024-02-04T08:25:48;1.07;;;0.97;;
5805;SDS011;2929;50.810;8.342;2024-02-04T08:28:17;1.27;;;1.20;;
5805;SDS011;2929;50.810;8.342;2024-02-04T08:30:46;1.00;;;0.90;;
5805;SDS011;2929;50.810;8.342;2024-02-04T08:33:12;1.00;;;0.90;;
5805;SDS011;2929;50.810;8.342;2024-02-04T08:35:40;0.77;;;0.77;;
5805;SDS011;2929;50.810;8.342;2024-02-04T08:38:07;1.10;;;0.70;;
5805;SDS011;2929;50.810;8.342;2024-02-04T08:40:34;1.13;;;0.60;;
5805;SDS011;2929;50.810;8.342;2024-02-04T08:43:01;0.70;;;0.70;;
5805;SDS011;2929;50.810;8.342;2024-02-04T08:45:29;0.50;;;0.50;;
5805;SDS011;2929;50.810;8.342;2024-02-04T08:47:56;0.50;;;0.50;;
5805;SDS011;2929;50.810;8.342;2024-02-04T08:50:23;1.60;;;0.57;;
5805;SDS011;2929;50.810;8.342;2024-02-04T08:52:50;0.60;;;0.60;;
5805;SDS011;2929;50.810;8.342;2024-02-04T08:55:17;0.50;;;0.50;;
5805;SDS011;2929;50.810;8.342;2024-02-04T08:57:44;0.40;;;0.40;;
5805;SDS011;2929;50.810;8.342;2024-02-04T09:00:13;0.50;;;0.50;;
5805;SDS011;2929;50.810;8.342;2024-02-04T09:02:42;0.50;;;0.50;;
5805;SDS011;2929;50.810;8.342;2024-02-04T09:05:09;0.60;;;0.60;;
5805;SDS011;2929;50.810;8.342;2024-02-04T09:07:36;0.50;;;0.50;;
5805;SDS011;2929;50.810;8.342;2024-02-04T09:10:04;0.50;;;0.50;;
5805;SDS011;2929;50.810;8.342;2024-02-04T09:12:32;0.50;;;0.50;;
5805;SDS011;2929;50.810;8.342;2024-02-04T09:15:00;0.50;;;0.50;;
5805;SDS011;2929;50.810;8.342;2024-02-04T09:17:27;0.40;;;0.40;;
5805;SDS011;2929;50.810;8.342;2024-02-04T09:19:55;0.43;;;0.43;;
5805;SDS011;2929;50.810;8.342;2024-02-04T09:22:22;0.50;;;0.50;;
5805;SDS011;2929;50.810;8.342;2024-02-04T09:24:49;0.53;;;0.53;;
5805;SDS011;2929;50.810;8.342;2024-02-04T09:27:16;0.60;;;0.60;;
5805;SDS011;2929;50.810;8.342;2024-02-04T09:29:43;0.80;;;0.80;;
5805;SDS011;2929;50.810;8.342;2024-02-04T09:32:10;0.60;;;0.60;;
5805;SDS011;2929;50.810;8.342;2024-02-04T09:34:37;0.90;;;0.90;;
5805;SDS011;2929;50.810;8.342;2024-02-04T09:37:06;0.80;;;0.80;;
5805;SDS011;2929;50.810;8.342;2024-02-04T09:39:33;0.70;;;0.70;;
5805;SDS011;2929;50.810;8.342;2024-02-04T09:41:59;1.00;;;1.00;;
5805;SDS011;2929;50.810;8.342;2024-02-04T09:44:27;0.63;;;0.63;;
5805;SDS011;2929;50.810;8.342;2024-02-04T09:46:54;1.43;;;0.70;;
5805;SDS011;2929;50.810;8.342;2024-02-04T09:49:23;0.80;;;0.80;;
5805;SDS011;2929;50.810;8.342;2024-02-04T09:51:51;1.67;;;0.73;;
5805;SDS011;2929;50.810;8.342;2024-02-04T09:54:20;0.73;;;0.73;;
5805;SDS011;2929;50.810;8.342;2024-02-04T09:56:48;0.60;;;0.60;;
5805;SDS011;2929;50.810;8.342;2024-02-04T09:59:16;0.83;;;0.83;;
5805;SDS011;2929;50.810;8.342;2024-02-04T10:01:43;0.90;;;0.90;;
5805;SDS011;2929;50.810;8.342;2024-02-04T10:04:11;1.00;;;1.00;;
5805;SDS011;2929;50.810;8.342;2024-02-04T10:06:38;1.33;;;1.23;;
5805;SDS011;2929;50.810;8.342;2024-02-04T10:09:06;0.70;;;0.70;;
5805;SDS011;2929;50.810;8.342;2024-02-04T10:11:35;1.83;;;0.60;;
5805;SDS011;2929;50.810;8.342;2024-02-04T10:14:01;0.80;;;0.80;;
5805;SDS011;2929;50.810;8.342;2024-02-04T10:16:29;0.87;;;0.77;;
5805;SDS011;2929;50.810;8.342;2024-02-04T10:18:56;0.70;;;0.70;;
5805;SDS011;2929;50.810;8.342;2024-02-04T10:21:23;0.60;;;0.60;;
5805;SDS011;2929;50.810;8.342;2024-02-04T10:23:50;2.70;;;1.00;;
5805;SDS011;2929;50.810;8.342;2024-02-04T10:26:18;0.80;;;0.80;;
5805;SDS011;2929;50.810;8.342;2024-02-04T10:28:47;1.03;;;0.80;;
5805;SDS011;2929;50.810;8.342;2024-02-04T10:31:14;0.60;;;0.60;;
5805;SDS011;2929;50.810;8.342;2024-02-04T10:33:41;0.80;;;0.80;;
5805;SDS011;2929;50.810;8.342;2024-02-04T10:36:08;0.50;;;0.50;;
5805;SDS011;2929;50.810;8.342;2024-02-04T10:38:36;0.80;;;0.60;;
5805;SDS011;2929;50.810;8.342;2024-02-04T10:41:03;0.67;;;0.67;;
5805;SDS011;2929;50.810;8.342;2024-02-04T10:46:51;0.57;;;0.57;;
5805;SDS011;2929;50.810;8.342;2024-02-04T10:49:19;0.50;;;0.50;;
5805;SDS011;2929;50.810;8.342;2024-02-04T10:51:46;0.53;;;0.53;;
5805;SDS011;2929;50.810;8.342;2024-02-04T10:54:15;0.77;;;0.67;;
5805;SDS011;2929;50.810;8.342;2024-02-04T10:56:43;0.60;;;0.60;;
5805;SDS011;2929;50.810;8.342;2024-02-04T10:59:13;1.43;;;0.90;;
5805;SDS011;2929;50.810;8.342;2024-02-04T11:01:43;0.63;;;0.63;;
5805;SDS011;2929;50.810;8.342;2024-02-04T11:04:14;0.80;;;0.80;;
5805;SDS011;2929;50.810;8.342;2024-02-04T11:06:43;0.50;;;0.50;;
5805;SDS011;2929;50.810;8.342;2024-02-04T11:09:11;1.67;;;1.00;;
5805;SDS011;2929;50.810;8.342;2024-02-04T11:11:39;1.67;;;1.57;;
5805;SDS011;2929;50.810;8.342;2024-02-04T11:14:08;1.03;;;1.03;;
5805;SDS011;2929;50.810;8.342;2024-02-04T11:16:44;0.70;;;0.70;;
5805;SDS011;2929;50.810;8.342;2024-02-04T11:19:31;1.97;;;0.83;;
5805;SDS011;2929;50.810;8.342;2024-02-04T11:22:14;0.70;;;0.70;;
5805;SDS011;2929;50.810;8.342;2024-02-04T11:25:10;0.93;;;0.83;;
5805;SDS011;2929;50.810;8.342;2024-02-04T11:27:47;2.57;;;0.83;;
5805;SDS011;2929;50.810;8.342;2024-02-04T11:30:15;0.83;;;0.83;;
5805;SDS011;2929;50.810;8.342;2024-02-04T11:32:42;1.30;;;0.90;;
5805;SDS011;2929;50.810;8.342;2024-02-04T11:35:14;1.00;;;0.80;;
5805;SDS011;2929;50.810;8.342;2024-02-04T11:37:50;0.70;;;0.70;;
5805;SDS011;2929;50.810;8.342;2024-02-04T11:40:37;1.40;;;1.13;;
5805;SDS011;2929;50.810;8.342;2024-02-04T11:43:05;0.67;;;0.67;;
5805;SDS011;2929;50.810;8.342;2024-02-04T11:45:33;1.00;;;1.00;;
5805;SDS011;2929;50.810;8.342;2024-02-04T11:48:06;1.80;;;0.90;;
5805;SDS011;2929;50.810;8.342;2024-02-04T11:50:36;1.20;;;1.20;;
5805;SDS011;2929;50.810;8.342;2024-02-04T11:53:07;1.30;;;1.20;;
5805;SDS011;2929;50.810;8.342;2024-02-04T11:55:36;0.90;;;0.90;;
5805;SDS011;2929;50.810;8.342;2024-02-04T11:58:05;1.73;;;1.10;;
5805;SDS011;2929;50.810;8.342;2024-02-04T12:00:32;1.07;;;0.87;;
5805;SDS011;2929;50.810;8.342;2024-02-04T12:03:00;0.63;;;0.63;;
5805;SDS011;2929;50.810;8.342;2024-02-04T12:05:30;0.50;;;0.50;;
5805;SDS011;2929;50.810;8.342;2024-02-04T12:08:01;0.70;;;0.70;;
5805;SDS011;2929;50.810;8.342;2024-02-04T12:10:29;1.00;;;0.90;;
5805;SDS011;2929;50.810;8.342;2024-02-04T12:12:58;0.97;;;0.97;;
5805;SDS011;2929;50.810;8.342;2024-02-04T12:15:25;1.07;;;0.97;;
5805;SDS011;2929;50.810;8.342;2024-02-04T12:17:52;0.80;;;0.80;;
5805;SDS011;2929;50.810;8.342;2024-02-04T12:20:20;0.80;;;0.80;;
5805;SDS011;2929;50.810;8.342;2024-02-04T12:22:47;1.80;;;0.93;;
5805;SDS011;2929;50.810;8.342;2024-02-04T12:25:16;0.80;;;0.80;;
5805;SDS011;2929;50.810;8.342;2024-02-04T12:27:44;0.60;;;0.60;;
5805;SDS011;2929;50.810;8.342;2024-02-04T12:30:13;0.67;;;0.67;;
5805;SDS011;2929;50.810;8.342;2024-02-04T12:32:41;1.07;;;0.90;;
5805;SDS011;2929;50.810;8.342;2024-02-04T12:35:08;1.37;;;0.70;;
5805;SDS011;2929;50.810;8.342;2024-02-04T12:37:49;0.77;;;0.50;;
5805;SDS011;2929;50.810;8.342;2024-02-04T12:40:21;0.70;;;0.53;;
5805;SDS011;2929;50.810;8.342;2024-02-04T12:42:53;0.50;;;0.50;;
5805;SDS011;2929;50.810;8.342;2024-02-04T12:45:21;0.50;;;0.50;;
5805;SDS011;2929;50.810;8.342;2024-02-04T12:47:49;0.70;;;0.70;;
5805;SDS011;2929;50.810;8.342;2024-02-04T12:50:17;0.80;;;0.60;;
5805;SDS011;2929;50.810;8.342;2024-02-04T12:52:44;0.60;;;0.60;;
5805;SDS011;2929;50.810;8.342;2024-02-04T12:55:23;0.50;;;0.50;;
5805;SDS011;2929;50.810;8.342;2024-02-04T12:58:00;0.50;;;0.50;;
5805;SDS011;2929;50.810;8.342;2024-02-04T13:00:29;1.33;;;0.60;;
5805;SDS011;2929;50.810;8.342;2024-02-04T13:02:57;0.70;;;0.70;;
5805;SDS011;2929;50.810;8.342;2024-02-04T13:05:25;0.50;;;0.50;;
5805;SDS011;2929;50.810;8.342;2024-02-04T13:07:55;0.80;;;0.60;;
5805;SDS011;2929;50.810;8.342;2024-02-04T13:10:27;0.50;;;0.50;;
5805;SDS011;2929;50.810;8.342;2024-02-04T13:12:59;0.80;;;0.63;;
5805;SDS011;2929;50.810;8.342;2024-02-04T13:15:27;0.60;;;0.60;;
5805;SDS011;2929;50.810;8.342;2024-02-04T13:17:55;1.80;;;0.70;;
5805;SDS011;2929;50.810;8.342;2024-02-04T13:20:22;0.70;;;0.70;;
5805;SDS011;2929;50.810;8.342;2024-02-04T13:22:49;0.70;;;0.70;;
5805;SDS011;2929;50.810;8.342;2024-02-04T13:25:18;1.03;;;1.00;;
5805;SDS011;2929;50.810;8.342;2024-02-04T13:27:47;0.80;;;0.80;;
5805;SDS011;2929;50.810;8.342;2024-02-04T13:30:15;2.73;;;1.53;;
5805;SDS011;2929;50.810;8.342;2024-02-04T13:32:42;0.70;;;0.70;;
5805;SDS011;2929;50.810;8.342;2024-02-04T13:35:11;0.80;;;0.70;;
5805;SDS011;2929;50.810;8.342;2024-02-04T13:37:43;0.67;;;0.67;;
5805;SDS011;2929;50.810;8.342;2024-02-04T13:40:13;0.97;;;0.70;;
5805;SDS011;2929;50.810;8.342;2024-02-04T13:42:41;0.80;;;0.70;;
5805;SDS011;2929;50.810;8.342;2024-02-04T13:45:11;0.60;;;0.60;;
5805;SDS011;2929;50.810;8.342;2024-02-04T13:47:39;0.60;;;0.60;;
5805;SDS011;2929;50.810;8.342;2024-02-04T13:50:07;0.63;;;0.63;;
5805;SDS011;2929;50.810;8.342;2024-02-04T13:52:34;1.37;;;0.60;;
5805;SDS011;2929;50.810;8.342;2024-02-04T13:55:01;0.50;;;0.50;;
5805;SDS011;2929;50.810;8.342;2024-02-04T13:57:31;0.70;;;0.70;;
5805;SDS011;2929;50.810;8.342;2024-02-04T13:59:59;1.57;;;0.77;;
5805;SDS011;2929;50.810;8.342;2024-02-04T14:02:28;0.60;;;0.60;;
5805;SDS011;2929;50.810;8.342;2024-02-04T14:04:55;0.87;;;0.87;;
5805;SDS011;2929;50.810;8.342;2024-02-04T14:07:22;3.23;;;0.60;;
5805;SDS011;2929;50.810;8.342;2024-02-04T14:09:50;0.73;;;0.73;;
5805;SDS011;2929;50.810;8.342;2024-02-04T14:12:17;0.70;;;0.60;;
5805;SDS011;2929;50.810;8.342;2024-02-04T14:14:44;0.63;;;0.53;;
5805;SDS011;2929;50.810;8.342;2024-02-04T14:17:10;0.60;;;0.60;;
5805;SDS011;2929;50.810;8.342;2024-02-04T14:19:39;0.53;;;0.53;;
5805;SDS011;2929;50.810;8.342;2024-02-04T14:22:06;0.50;;;0.50;;
5805;SDS011;2929;50.810;8.342;2024-02-04T14:24:33;0.50;;;0.50;;
5805;SDS011;2929;50.810;8.342;2024-02-04T14:27:00;1.03;;;0.50;;
5805;SDS011;2929;50.810;8.342;2024-02-04T14:29:28;0.90;;;0.50;;
5805;SDS011;2929;50.810;8.342;2024-02-04T14:31:54;0.50;;;0.50;;
5805;SDS011;2929;50.810;8.342;2024-02-04T14:34:23;0.70;;;0.60;;
5805;SDS011;2929;50.810;8.342;2024-02-04T14:36:51;0.50;;;0.50;;
5805;SDS011;2929;50.810;8.342;2024-02-04T14:39:19;0.60;;;0.60;;
5805;SDS011;2929;50.810;8.342;2024-02-04T14:41:46;0.50;;;0.50;;
5805;SDS011;2929;50.810;8.342;2024-02-04T14:44:14;0.67;;;0.67;;
5805;SDS011;2929;50.810;8.342;2024-02-04T14:46:42;1.80;;;0.73;;
5805;SDS011;2929;50.810;8.342;2024-02-04T14:49:12;0.73;;;0.73;;
5805;SDS011;2929;50.810;8.342;2024-02-04T14:51:40;0.90;;;0.80;;
5805;SDS011;2929;50.810;8.342;2024-02-04T14:54:08;0.70;;;0.60;;
5805;SDS011;2929;50.810;8.342;2024-02-04T14:56:39;0.60;;;0.60;;
5805;SDS011;2929;50.810;8.342;2024-02-04T14:59:07;0.70;;;0.70;;
5805;SDS011;2929;50.810;8.342;2024-02-04T15:01:35;0.90;;;0.70;;
5805;SDS011;2929;50.810;8.342;2024-02-04T15:04:02;0.93;;;0.93;;
5805;SDS011;2929;50.810;8.342;2024-02-04T15:06:30;0.67;;;0.63;;
5805;SDS011;2929;50.810;8.342;2024-02-04T15:08:57;1.10;;;1.00;;
5805;SDS011;2929;50.810;8.342;2024-02-04T15:11:26;0.70;;;0.70;;
5805;SDS011;2929;50.810;8.342;2024-02-04T15:13:55;2.67;;;0.60;;
5805;SDS011;2929;50.810;8.342;2024-02-04T15:16:22;0.60;;;0.60;;
5805;SDS011;2929;50.810;8.342;2024-02-04T15:18:50;1.83;;;0.80;;
5805;SDS011;2929;50.810;8.342;2024-02-04T15:21:17;1.13;;;1.03;;
5805;SDS011;2929;50.810;8.342;2024-02-04T15:23:45;1.00;;;0.90;;